Pouch Cove, Canada
Current Conditions -  °F | °C
As of 11:47 AM on Sunday 23 Nov 2014 (Local Time) from CYYT Reporting Station
Rain Showers Rain Showers  
Wind Chill: 24°   Ceiling: 800
Heat Index: 34°   Visibility: 5mi
Dew Point: 32°   Wind: 14mph
Humidity: 93%   Direction: 270°W
Pressure: 29.7"   Gusts: 22mph
Location:  47.76°N, 52.76°W
Report Text: CYYT 231447Z 27012G19KT 5SM -SHGR BKN008 OVC015 01/00 A2970 RMK SF6SC2 SLP063
Loading
Personal Weather Stations






























Interactive Weather Map New forecast layout! Learn more

10-Day Weather Forecast

Advertisements
Track Severe Weather on mobile